sensor_id;sensor_type;location;lat;lon;timestamp;pressure;altitude;pressure_sealevel;temperature;humidity
79285;BME280;68734;50.452;11.636;2023-05-10T00:01:39;94902.72;;;10.02;58.57
79285;BME280;68734;50.452;11.636;2023-05-10T00:04:05;94912.72;;;10.02;58.93
79285;BME280;68734;50.452;11.636;2023-05-10T00:06:31;94901.13;;;10.01;58.60
79285;BME280;68734;50.452;11.636;2023-05-10T00:08:59;94896.25;;;9.98;59.01
79285;BME280;68734;50.452;11.636;2023-05-10T00:11:24;94891.41;;;9.90;58.79
79285;BME280;68734;50.452;11.636;2023-05-10T00:13:50;94892.78;;;9.92;59.03
79285;BME280;68734;50.452;11.636;2023-05-10T00:16:15;94890.88;;;9.93;59.17
79285;BME280;68734;50.452;11.636;2023-05-10T00:18:41;94893.03;;;9.96;59.05
79285;BME280;68734;50.452;11.636;2023-05-10T00:21:06;94876.31;;;9.94;59.05
79285;BME280;68734;50.452;11.636;2023-05-10T00:23:32;94883.84;;;9.92;58.98
79285;BME280;68734;50.452;11.636;2023-05-10T00:25:59;94887.63;;;9.96;59.38
79285;BME280;68734;50.452;11.636;2023-05-10T00:28:27;94879.00;;;9.94;59.14
79285;BME280;68734;50.452;11.636;2023-05-10T00:30:52;94883.88;;;9.97;59.58
79285;BME280;68734;50.452;11.636;2023-05-10T00:33:18;94878.47;;;9.97;59.13
79285;BME280;68734;50.452;11.636;2023-05-10T00:35:43;94876.84;;;9.96;59.06
79285;BME280;68734;50.452;11.636;2023-05-10T00:38:11;94872.00;;;9.93;59.70
79285;BME280;68734;50.452;11.636;2023-05-10T00:40:36;94868.75;;;9.96;59.50
79285;BME280;68734;50.452;11.636;2023-05-10T00:43:03;94855.56;;;9.89;59.49
79285;BME280;68734;50.452;11.636;2023-05-10T00:45:30;94865.81;;;9.92;60.11
79285;BME280;68734;50.452;11.636;2023-05-10T00:47:56;94868.50;;;9.92;59.31
79285;BME280;68734;50.452;11.636;2023-05-10T00:50:22;94867.13;;;9.90;59.87
79285;BME280;68734;50.452;11.636;2023-05-10T00:52:51;94858.50;;;9.88;60.06
79285;BME280;68734;50.452;11.636;2023-05-10T00:55:17;94863.38;;;9.91;59.96
79285;BME280;68734;50.452;11.636;2023-05-10T00:57:43;94860.16;;;9.89;60.37
79285;BME280;68734;50.452;11.636;2023-05-10T01:00:09;94855.00;;;9.87;60.51
79285;BME280;68734;50.452;11.636;2023-05-10T01:02:34;94858.50;;;9.88;60.04
79285;BME280;68734;50.452;11.636;2023-05-10T01:05:01;94850.72;;;9.86;60.25
79285;BME280;68734;50.452;11.636;2023-05-10T01:07:28;94843.69;;;9.85;60.54
79285;BME280;68734;50.452;11.636;2023-05-10T01:09:54;94841.25;;;9.84;60.18
79285;BME280;68734;50.452;11.636;2023-05-10T01:12:19;94845.59;;;9.85;60.60
79285;BME280;68734;50.452;11.636;2023-05-10T01:14:45;94832.63;;;9.82;60.45
79285;BME280;68734;50.452;11.636;2023-05-10T01:17:11;94839.66;;;9.83;60.44
79285;BME280;68734;50.452;11.636;2023-05-10T01:19:40;94835.59;;;9.80;60.80
79285;BME280;68734;50.452;11.636;2023-05-10T01:33:11;94842.91;;;9.74;61.58
79285;BME280;68734;50.452;11.636;2023-05-10T01:39:01;94843.72;;;9.75;61.63
79285;BME280;68734;50.452;11.636;2023-05-10T01:44:11;94825.41;;;9.67;61.79
79285;BME280;68734;50.452;11.636;2023-05-10T01:46:40;94835.88;;;9.73;61.58
79285;BME280;68734;50.452;11.636;2023-05-10T01:49:11;94840.75;;;9.71;61.62
79285;BME280;68734;50.452;11.636;2023-05-10T01:52:06;94841.84;;;9.70;62.11
79285;BME280;68734;50.452;11.636;2023-05-10T01:54:35;94827.81;;;9.68;62.23
79285;BME280;68734;50.452;11.636;2023-05-10T01:57:05;94836.72;;;9.64;62.54
79285;BME280;68734;50.452;11.636;2023-05-10T01:59:34;94834.84;;;9.64;62.71
79285;BME280;68734;50.452;11.636;2023-05-10T02:02:07;94833.75;;;9.65;62.39
79285;BME280;68734;50.452;11.636;2023-05-10T02:04:38;94826.75;;;9.64;62.29
79285;BME280;68734;50.452;11.636;2023-05-10T02:07:05;94834.03;;;9.58;62.66
79285;BME280;68734;50.452;11.636;2023-05-10T02:09:32;94833.22;;;9.63;62.30
79285;BME280;68734;50.452;11.636;2023-05-10T02:11:59;94838.06;;;9.61;63.09
79285;BME280;68734;50.452;11.636;2023-05-10T02:14:32;94839.66;;;9.62;62.74
79285;BME280;68734;50.452;11.636;2023-05-10T02:17:05;94835.91;;;9.63;62.28
79285;BME280;68734;50.452;11.636;2023-05-10T02:19:37;94833.75;;;9.60;62.75
79285;BME280;68734;50.452;11.636;2023-05-10T02:22:08;94845.63;;;9.59;62.49
79285;BME280;68734;50.452;11.636;2023-05-10T02:24:39;94827.56;;;9.54;62.92
79285;BME280;68734;50.452;11.636;2023-05-10T02:27:06;94826.75;;;9.54;63.00
79285;BME280;68734;50.452;11.636;2023-05-10T02:29:33;94831.59;;;9.57;63.17
79285;BME280;68734;50.452;11.636;2023-05-10T02:31:59;94833.75;;;9.55;62.96
79285;BME280;68734;50.452;11.636;2023-05-10T02:34:26;94824.59;;;9.56;62.90
79285;BME280;68734;50.452;11.636;2023-05-10T02:36:52;94828.38;;;9.55;63.18
79285;BME280;68734;50.452;11.636;2023-05-10T02:39:19;94826.75;;;9.54;62.92
79285;BME280;68734;50.452;11.636;2023-05-10T02:41:47;94825.94;;;9.53;62.88
79285;BME280;68734;50.452;11.636;2023-05-10T02:44:17;94830.53;;;9.53;63.30
79285;BME280;68734;50.452;11.636;2023-05-10T02:46:43;94828.91;;;9.52;63.17
79285;BME280;68734;50.452;11.636;2023-05-10T02:49:09;94824.59;;;9.46;63.54
79285;BME280;68734;50.452;11.636;2023-05-10T02:51:37;94823.00;;;9.45;63.80
79285;BME280;68734;50.452;11.636;2023-05-10T02:54:15;94837.53;;;9.44;63.85
79285;BME280;68734;50.452;11.636;2023-05-10T02:56:53;94829.44;;;9.44;63.59
79285;BME280;68734;50.452;11.636;2023-05-10T02:59:21;94831.59;;;9.42;63.58
79285;BME280;68734;50.452;11.636;2023-05-10T03:01:47;94823.53;;;9.42;64.00
79285;BME280;68734;50.452;11.636;2023-05-10T03:04:12;94826.75;;;9.44;63.91
79285;BME280;68734;50.452;11.636;2023-05-10T03:06:38;94817.59;;;9.45;63.86
79285;BME280;68734;50.452;11.636;2023-05-10T03:09:04;94822.97;;;9.50;63.75
79285;BME280;68734;50.452;11.636;2023-05-10T03:14:15;94821.91;;;9.51;63.89
79285;BME280;68734;50.452;11.636;2023-05-10T03:16:57;94822.44;;;9.53;63.66
79285;BME280;68734;50.452;11.636;2023-05-10T03:19:27;94818.69;;;9.49;63.89
79285;BME280;68734;50.452;11.636;2023-05-10T03:21:55;94814.88;;;9.50;63.92
79285;BME280;68734;50.452;11.636;2023-05-10T03:24:27;94817.59;;;9.55;63.93
79285;BME280;68734;50.452;11.636;2023-05-10T03:26:55;94822.44;;;9.53;64.14
79285;BME280;68734;50.452;11.636;2023-05-10T03:29:22;94822.44;;;9.48;64.03
79285;BME280;68734;50.452;11.636;2023-05-10T03:31:49;94827.81;;;9.48;63.96
79285;BME280;68734;50.452;11.636;2023-05-10T03:34:15;94827.03;;;9.52;64.16
79285;BME280;68734;50.452;11.636;2023-05-10T03:36:42;94826.75;;;9.49;64.35
79285;BME280;68734;50.452;11.636;2023-05-10T03:39:07;94822.44;;;9.48;64.28
79285;BME280;68734;50.452;11.636;2023-05-10T03:41:33;94830.28;;;9.54;64.14
79285;BME280;68734;50.452;11.636;2023-05-10T03:43:58;94830.50;;;9.58;64.04
79285;BME280;68734;50.452;11.636;2023-05-10T03:46:24;94834.28;;;9.62;64.25
79285;BME280;68734;50.452;11.636;2023-05-10T03:48:49;94830.22;;;9.70;63.52
79285;BME280;68734;50.452;11.636;2023-05-10T03:51:15;94833.19;;;9.73;63.35
79285;BME280;68734;50.452;11.636;2023-05-10T03:53:40;94830.44;;;9.94;63.24
79285;BME280;68734;50.452;11.636;2023-05-10T03:56:05;94834.94;;;10.24;62.57
79285;BME280;68734;50.452;11.636;2023-05-10T03:58:33;94834.66;;;10.41;62.13
79285;BME280;68734;50.452;11.636;2023-05-10T04:00:58;94835.22;;;10.33;62.39
79285;BME280;68734;50.452;11.636;2023-05-10T04:03:24;94835.50;;;10.16;62.63
79285;BME280;68734;50.452;11.636;2023-05-10T04:05:58;94836.91;;;9.98;64.17
79285;BME280;68734;50.452;11.636;2023-05-10T04:08:24;94828.88;;;9.83;64.29
79285;BME280;68734;50.452;11.636;2023-05-10T04:10:51;94840.19;;;9.79;64.83
79285;BME280;68734;50.452;11.636;2023-05-10T04:13:16;94838.59;;;9.78;65.08
79285;BME280;68734;50.452;11.636;2023-05-10T04:15:42;94843.97;;;9.73;65.77
79285;BME280;68734;50.452;11.636;2023-05-10T04:18:08;94842.38;;;9.67;66.30
79285;BME280;68734;50.452;11.636;2023-05-10T04:20:33;94842.66;;;9.71;66.45
79285;BME280;68734;50.452;11.636;2023-05-10T04:22:59;94842.91;;;9.74;66.22
79285;BME280;68734;50.452;11.636;2023-05-10T04:25:24;94841.81;;;9.75;65.57
79285;BME280;68734;50.452;11.636;2023-05-10T04:27:50;94848.84;;;9.76;65.86
79285;BME280;68734;50.452;11.636;2023-05-10T04:30:18;94841.00;;;9.70;65.42
79285;BME280;68734;50.452;11.636;2023-05-10T04:32:43;94842.91;;;9.74;66.07
79285;BME280;68734;50.452;11.636;2023-05-10T04:35:11;94850.44;;;9.77;66.36
79285;BME280;68734;50.452;11.636;2023-05-10T04:37:39;94831.31;;;9.64;66.21
79285;BME280;68734;50.452;11.636;2023-05-10T04:40:05;94839.66;;;9.62;66.71
79285;BME280;68734;50.452;11.636;2023-05-10T04:42:33;94843.44;;;9.71;67.30
79285;BME280;68734;50.452;11.636;2023-05-10T04:44:58;94844.81;;;9.69;67.00
79285;BME280;68734;50.452;11.636;2023-05-10T04:47:24;94843.44;;;9.71;67.00
79285;BME280;68734;50.452;11.636;2023-05-10T04:49:49;94838.06;;;9.71;67.35
79285;BME280;68734;50.452;11.636;2023-05-10T04:52:14;94843.72;;;9.75;67.37
79285;BME280;68734;50.452;11.636;2023-05-10T04:54:42;94836.44;;;9.81;67.93
79285;BME280;68734;50.452;11.636;2023-05-10T04:57:07;94831.59;;;9.72;68.97
79285;BME280;68734;50.452;11.636;2023-05-10T04:59:36;94841.56;;;9.77;67.86
79285;BME280;68734;50.452;11.636;2023-05-10T05:02:04;94842.34;;;9.77;69.02
79285;BME280;68734;50.452;11.636;2023-05-10T05:04:30;94840.19;;;9.79;68.48
79285;BME280;68734;50.452;11.636;2023-05-10T05:06:56;94839.66;;;9.83;68.94
79285;BME280;68734;50.452;11.636;2023-05-10T05:09:21;94854.22;;;9.82;68.89
79285;BME280;68734;50.452;11.636;2023-05-10T05:11:47;94859.63;;;9.76;68.47
79285;BME280;68734;50.452;11.636;2023-05-10T05:14:12;94873.34;;;9.80;68.97
79285;BME280;68734;50.452;11.636;2023-05-10T05:16:37;94875.25;;;9.79;68.22
79285;BME280;68734;50.452;11.636;2023-05-10T05:19:03;94865.03;;;9.76;68.95
79285;BME280;68734;50.452;11.636;2023-05-10T05:21:28;94879.56;;;9.81;68.66
79285;BME280;68734;50.452;11.636;2023-05-10T05:23:54;94890.91;;;9.77;69.50
79285;BME280;68734;50.452;11.636;2023-05-10T05:26:19;94880.66;;;9.85;69.05
79285;BME280;68734;50.452;11.636;2023-05-10T05:28:45;94885.47;;;9.88;70.40
79285;BME280;68734;50.452;11.636;2023-05-10T05:31:10;94878.47;;;9.82;71.29
79285;BME280;68734;50.452;11.636;2023-05-10T05:33:37;94887.09;;;9.84;70.41
79285;BME280;68734;50.452;11.636;2023-05-10T05:36:04;94885.22;;;9.84;70.79
79285;BME280;68734;50.452;11.636;2023-05-10T05:38:30;94885.50;;;9.77;71.11
79285;BME280;68734;50.452;11.636;2023-05-10T05:40:55;94887.38;;;9.87;71.72
79285;BME280;68734;50.452;11.636;2023-05-10T05:43:21;94891.94;;;9.92;71.53
79285;BME280;68734;50.452;11.636;2023-05-10T05:45:46;94893.03;;;9.96;71.55
79285;BME280;68734;50.452;11.636;2023-05-10T05:48:12;94898.41;;;10.01;72.21
79285;BME280;68734;50.452;11.636;2023-05-10T05:50:37;94901.13;;;9.96;72.89
79285;BME280;68734;50.452;11.636;2023-05-10T05:53:02;94907.34;;;9.91;72.72
79285;BME280;68734;50.452;11.636;2023-05-10T05:55:28;94914.09;;;9.89;73.53
79285;BME280;68734;50.452;11.636;2023-05-10T05:57:54;94920.00;;;9.86;74.38
79285;BME280;68734;50.452;11.636;2023-05-10T06:00:22;94924.31;;;9.82;74.66
79285;BME280;68734;50.452;11.636;2023-05-10T06:02:47;94931.38;;;9.72;76.16
79285;BME280;68734;50.452;11.636;2023-05-10T06:05:13;94935.69;;;9.68;76.99
79285;BME280;68734;50.452;11.636;2023-05-10T06:07:42;94936.19;;;9.65;77.91
79285;BME280;68734;50.452;11.636;2023-05-10T06:10:11;94942.13;;;9.62;77.40
79285;BME280;68734;50.452;11.636;2023-05-10T06:12:38;94937.28;;;9.59;77.76
79285;BME280;68734;50.452;11.636;2023-05-10T06:15:04;94941.03;;;9.48;78.96
79285;BME280;68734;50.452;11.636;2023-05-10T06:17:30;94939.72;;;9.50;80.19
79285;BME280;68734;50.452;11.636;2023-05-10T06:19:58;94939.97;;;9.54;80.45
79285;BME280;68734;50.452;11.636;2023-05-10T06:22:23;94934.56;;;9.54;79.77
79285;BME280;68734;50.452;11.636;2023-05-10T06:24:49;94943.75;;;9.63;79.88
79285;BME280;68734;50.452;11.636;2023-05-10T06:27:14;94940.50;;;9.56;79.98
79285;BME280;68734;50.452;11.636;2023-05-10T06:29:40;94942.41;;;9.66;81.73
79285;BME280;68734;50.452;11.636;2023-05-10T06:32:06;94943.22;;;9.82;80.97
79285;BME280;68734;50.452;11.636;2023-05-10T06:34:33;94952.41;;;9.81;80.61
79285;BME280;68734;50.452;11.636;2023-05-10T06:36:59;94945.91;;;9.82;80.45
79285;BME280;68734;50.452;11.636;2023-05-10T06:39:25;94944.84;;;9.93;80.95
79285;BME280;68734;50.452;11.636;2023-05-10T06:41:50;94954.50;;;10.04;81.06
79285;BME280;68734;50.452;11.636;2023-05-10T06:44:15;94957.78;;;10.01;80.88
79285;BME280;68734;50.452;11.636;2023-05-10T06:46:41;94959.41;;;9.97;81.81
79285;BME280;68734;50.452;11.636;2023-05-10T06:49:06;94963.16;;;9.86;81.19
79285;BME280;68734;50.452;11.636;2023-05-10T06:51:34;94957.25;;;9.78;82.28
79285;BME280;68734;50.452;11.636;2023-05-10T06:54:00;94965.31;;;9.73;82.44
79285;BME280;68734;50.452;11.636;2023-05-10T06:56:25;94972.88;;;9.71;82.08
79285;BME280;68734;50.452;11.636;2023-05-10T06:58:51;94963.16;;;9.65;83.03
79285;BME280;68734;50.452;11.636;2023-05-10T07:01:16;94972.34;;;9.74;82.61
79285;BME280;68734;50.452;11.636;2023-05-10T07:03:41;94971.00;;;9.67;83.53
79285;BME280;68734;50.452;11.636;2023-05-10T07:06:07;94963.44;;;9.69;83.86
79285;BME280;68734;50.452;11.636;2023-05-10T07:08:33;94971.53;;;9.74;84.67
79285;BME280;68734;50.452;11.636;2023-05-10T07:11:03;94969.13;;;9.83;83.29
79285;BME280;68734;50.452;11.636;2023-05-10T07:13:32;94959.41;;;9.87;83.61
79285;BME280;68734;50.452;11.636;2023-05-10T07:15:59;94971.78;;;9.98;83.73
79285;BME280;68734;50.452;11.636;2023-05-10T07:18:25;94968.81;;;10.10;83.60
79285;BME280;68734;50.452;11.636;2023-05-10T07:20:51;94970.69;;;10.19;84.39
79285;BME280;68734;50.452;11.636;2023-05-10T07:23:16;94978.25;;;10.23;84.01
79285;BME280;68734;50.452;11.636;2023-05-10T07:25:49;94972.56;;;10.29;83.27
79285;BME280;68734;50.452;11.636;2023-05-10T07:28:15;94979.88;;;10.34;83.94
79285;BME280;68734;50.452;11.636;2023-05-10T07:30:42;94977.72;;;10.36;84.61
79285;BME280;68734;50.452;11.636;2023-05-10T07:33:09;94976.63;;;10.42;84.01
79285;BME280;68734;50.452;11.636;2023-05-10T07:35:35;94978.25;;;10.43;84.71
79285;BME280;68734;50.452;11.636;2023-05-10T07:38:00;94984.19;;;10.30;84.89
79285;BME280;68734;50.452;11.636;2023-05-10T07:40:26;94982.03;;;10.47;84.23
79285;BME280;68734;50.452;11.636;2023-05-10T07:42:51;94985.25;;;10.54;83.32
79285;BME280;68734;50.452;11.636;2023-05-10T07:45:17;94971.75;;;10.49;84.60
79285;BME280;68734;50.452;11.636;2023-05-10T07:47:43;94983.31;;;10.60;85.02
79285;BME280;68734;50.452;11.636;2023-05-10T07:50:08;94993.31;;;10.70;83.95
79285;BME280;68734;50.452;11.636;2023-05-10T07:52:36;94989.50;;;10.76;83.99
79285;BME280;68734;50.452;11.636;2023-05-10T07:55:01;94989.50;;;10.81;85.28
79285;BME280;68734;50.452;11.636;2023-05-10T07:57:30;94989.47;;;10.86;85.70
79285;BME280;68734;50.452;11.636;2023-05-10T07:59:55;94995.38;;;10.93;85.03
79285;BME280;68734;50.452;11.636;2023-05-10T08:02:21;94996.97;;;11.00;84.70
79285;BME280;68734;50.452;11.636;2023-05-10T08:04:46;94988.34;;;10.97;85.51
79285;BME280;68734;50.452;11.636;2023-05-10T08:07:12;94986.69;;;11.07;84.85
79285;BME280;68734;50.452;11.636;2023-05-10T08:09:37;94991.94;;;11.37;84.40
79285;BME280;68734;50.452;11.636;2023-05-10T08:12:03;94994.00;;;11.56;84.23
79285;BME280;68734;50.452;11.636;2023-05-10T08:14:29;94995.09;;;11.50;84.25
79285;BME280;68734;50.452;11.636;2023-05-10T08:16:55;94990.16;;;11.67;81.30
79285;BME280;68734;50.452;11.636;2023-05-10T08:19:20;94993.25;;;11.90;82.00
79285;BME280;68734;50.452;11.636;2023-05-10T08:21:47;94998.50;;;12.10;82.06
79285;BME280;68734;50.452;11.636;2023-05-10T08:24:12;94991.81;;;12.32;82.19
79285;BME280;68734;50.452;11.636;2023-05-10T08:26:38;94985.25;;;12.38;80.73
79285;BME280;68734;50.452;11.636;2023-05-10T08:29:03;94996.66;;;12.64;79.94
79285;BME280;68734;50.452;11.636;2023-05-10T08:31:29;95006.09;;;12.67;78.37
79285;BME280;68734;50.452;11.636;2023-05-10T08:33:55;95003.91;;;12.69;78.36
79285;BME280;68734;50.452;11.636;2023-05-10T08:36:20;95014.66;;;12.79;78.58
79285;BME280;68734;50.452;11.636;2023-05-10T08:38:53;95009.53;;;12.77;77.54
79285;BME280;68734;50.452;11.636;2023-05-10T08:41:23;95023.88;;;12.78;77.84
79285;BME280;68734;50.452;11.636;2023-05-10T08:43:53;95024.41;;;12.80;76.33
79285;BME280;68734;50.452;11.636;2023-05-10T08:46:21;95021.69;;;12.80;77.07
79285;BME280;68734;50.452;11.636;2023-05-10T08:48:49;95015.56;;;12.69;77.80
79285;BME280;68734;50.452;11.636;2023-05-10T08:51:18;95023.47;;;12.66;77.70
79285;BME280;68734;50.452;11.636;2023-05-10T08:53:46;95031.63;;;12.61;78.09
79285;BME280;68734;50.452;11.636;2023-05-10T08:56:12;95021.63;;;12.61;77.73
79285;BME280;68734;50.452;11.636;2023-05-10T08:58:38;95020.66;;;12.76;77.02
79285;BME280;68734;50.452;11.636;2023-05-10T09:01:06;95028.63;;;12.91;76.98
79285;BME280;68734;50.452;11.636;2023-05-10T09:03:32;95022.59;;;12.94;75.89
79285;BME280;68734;50.452;11.636;2023-05-10T09:05:58;95034.97;;;13.06;77.20
79285;BME280;68734;50.452;11.636;2023-05-10T09:08:24;95032.88;;;13.22;77.28
79285;BME280;68734;50.452;11.636;2023-05-10T09:10:54;95030.94;;;13.27;76.27
79285;BME280;68734;50.452;11.636;2023-05-10T09:13:21;95039.53;;;13.34;75.72
79285;BME280;68734;50.452;11.636;2023-05-10T09:15:47;95042.09;;;13.45;75.95
79285;BME280;68734;50.452;11.636;2023-05-10T09:18:13;95051.50;;;13.33;75.30
79285;BME280;68734;50.452;11.636;2023-05-10T09:20:38;95053.56;;;13.42;75.74
79285;BME280;68734;50.452;11.636;2023-05-10T09:23:04;95046.16;;;13.47;75.62
79285;BME280;68734;50.452;11.636;2023-05-10T09:25:30;95057.50;;;13.73;75.21
79285;BME280;68734;50.452;11.636;2023-05-10T09:27:58;95056.84;;;13.82;74.71
79285;BME280;68734;50.452;11.636;2023-05-10T09:30:26;95056.41;;;13.93;74.55
79285;BME280;68734;50.452;11.636;2023-05-10T09:32:52;95047.56;;;13.83;73.44
79285;BME280;68734;50.452;11.636;2023-05-10T09:35:19;95061.19;;;13.59;72.98
79285;BME280;68734;50.452;11.636;2023-05-10T09:37:48;95059.81;;;13.61;74.46
79285;BME280;68734;50.452;11.636;2023-05-10T09:40:19;95054.91;;;13.63;74.40
79285;BME280;68734;50.452;11.636;2023-05-10T09:43:07;95062.41;;;13.71;73.73
79285;BME280;68734;50.452;11.636;2023-05-10T09:45:36;95058.44;;;13.83;73.09
79285;BME280;68734;50.452;11.636;2023-05-10T09:48:02;95056.97;;;14.09;74.27
79285;BME280;68734;50.452;11.636;2023-05-10T09:50:29;95062.59;;;14.32;72.62
79285;BME280;68734;50.452;11.636;2023-05-10T09:52:59;95058.69;;;14.38;69.83
79285;BME280;68734;50.452;11.636;2023-05-10T09:55:45;95051.97;;;14.16;72.05
79285;BME280;68734;50.452;11.636;2023-05-10T09:58:15;95057.34;;;14.54;72.22
79285;BME280;68734;50.452;11.636;2023-05-10T10:00:42;95057.88;;;14.89;70.89
79285;BME280;68734;50.452;11.636;2023-05-10T10:03:19;95054.56;;;15.20;69.78
79285;BME280;68734;50.452;11.636;2023-05-10T10:05:47;95046.06;;;15.63;68.77
79285;BME280;68734;50.452;11.636;2023-05-10T10:08:13;95056.47;;;15.75;68.40
79285;BME280;68734;50.452;11.636;2023-05-10T10:10:39;95057.34;;;15.98;66.31
79285;BME280;68734;50.452;11.636;2023-05-10T10:13:05;95058.44;;;15.97;67.50
79285;BME280;68734;50.452;11.636;2023-05-10T10:15:33;95064.28;;;16.04;66.30
79285;BME280;68734;50.452;11.636;2023-05-10T10:17:59;95061.41;;;16.09;66.34
79285;BME280;68734;50.452;11.636;2023-05-10T10:20:30;95061.88;;;15.89;64.19
79285;BME280;68734;50.452;11.636;2023-05-10T10:22:56;95057.16;;;15.81;66.53
79285;BME280;68734;50.452;11.636;2023-05-10T10:25:22;95058.84;;;16.04;64.97
79285;BME280;68734;50.452;11.636;2023-05-10T10:30:39;95052.84;;;15.52;63.56
79285;BME280;68734;50.452;11.636;2023-05-10T10:36:06;95049.63;;;15.78;63.75
79285;BME280;68734;50.452;11.636;2023-05-10T10:38:36;95051.59;;;16.00;63.36
79285;BME280;68734;50.452;11.636;2023-05-10T10:41:11;95053.78;;;16.34;61.94
79285;BME280;68734;50.452;11.636;2023-05-10T10:49:51;95048.53;;;16.60;61.71
79285;BME280;68734;50.452;11.636;2023-05-10T10:52:24;95047.19;;;17.03;60.45
79285;BME280;68734;50.452;11.636;2023-05-10T10:54:58;95052.22;;;17.18;60.13
79285;BME280;68734;50.452;11.636;2023-05-10T10:57:25;95050.19;;;16.47;60.41
79285;BME280;68734;50.452;11.636;2023-05-10T10:59:54;95055.19;;;16.77;60.46
79285;BME280;68734;50.452;11.636;2023-05-10T11:07:59;95046.19;;;15.58;63.96
79285;BME280;68734;50.452;11.636;2023-05-10T11:10:28;95056.06;;;15.54;65.00
79285;BME280;68734;50.452;11.636;2023-05-10T11:13:01;95064.44;;;15.30;64.77
79285;BME280;68734;50.452;11.636;2023-05-10T11:15:37;95061.75;;;14.50;67.39
79285;BME280;68734;50.452;11.636;2023-05-10T11:18:29;95072.94;;;14.30;70.36
79285;BME280;68734;50.452;11.636;2023-05-10T11:21:00;95067.06;;;14.23;70.84
79285;BME280;68734;50.452;11.636;2023-05-10T11:26:12;95075.66;;;14.11;72.84
79285;BME280;68734;50.452;11.636;2023-05-10T11:28:47;95073.25;;;14.28;72.24
79285;BME280;68734;50.452;11.636;2023-05-10T11:31:14;95073.63;;;14.54;71.26
79285;BME280;68734;50.452;11.636;2023-05-10T11:36:18;95071.09;;;15.10;71.21
79285;BME280;68734;50.452;11.636;2023-05-10T11:38:44;95059.88;;;15.53;69.68
79285;BME280;68734;50.452;11.636;2023-05-10T11:41:13;95062.91;;;15.65;68.22
79285;BME280;68734;50.452;11.636;2023-05-10T11:43:41;95062.28;;;15.96;67.40
79285;BME280;68734;50.452;11.636;2023-05-10T11:46:09;95067.03;;;16.27;65.78
79285;BME280;68734;50.452;11.636;2023-05-10T11:48:36;95060.97;;;16.30;64.61
79285;BME280;68734;50.452;11.636;2023-05-10T11:51:02;95062.31;;;16.41;63.01
79285;BME280;68734;50.452;11.636;2023-05-10T11:53:32;95064.09;;;16.82;62.86
79285;BME280;68734;50.452;11.636;2023-05-10T11:56:08;95075.66;;;16.88;60.65
79285;BME280;68734;50.452;11.636;2023-05-10T11:58:37;95067.72;;;16.55;59.63
79285;BME280;68734;50.452;11.636;2023-05-10T12:01:06;95062.31;;;16.41;59.86
79285;BME280;68734;50.452;11.636;2023-05-10T12:03:32;95071.91;;;15.80;61.36
79285;BME280;68734;50.452;11.636;2023-05-10T12:05:59;95074.91;;;15.92;63.40
79285;BME280;68734;50.452;11.636;2023-05-10T12:08:29;95071.25;;;16.33;61.80
79285;BME280;68734;50.452;11.636;2023-05-10T12:11:06;95075.78;;;16.60;60.18
79285;BME280;68734;50.452;11.636;2023-05-10T12:13:31;95076.69;;;16.55;59.59
79285;BME280;68734;50.452;11.636;2023-05-10T12:15:58;95081.91;;;16.43;60.51
79285;BME280;68734;50.452;11.636;2023-05-10T12:18:24;95072.59;;;16.22;60.31
79285;BME280;68734;50.452;11.636;2023-05-10T12:20:55;95080.09;;;16.39;59.86
79285;BME280;68734;50.452;11.636;2023-05-10T12:23:28;95085.69;;;16.56;60.22
79285;BME280;68734;50.452;11.636;2023-05-10T12:26:04;95081.53;;;16.36;59.15
79285;BME280;68734;50.452;11.636;2023-05-10T12:28:30;95080.66;;;16.49;59.57
79285;BME280;68734;50.452;11.636;2023-05-10T12:30:58;95077.56;;;16.65;59.26
79285;BME280;68734;50.452;11.636;2023-05-10T12:33:24;95076.28;;;16.85;58.06
79285;BME280;68734;50.452;11.636;2023-05-10T12:35:55;95078.69;;;16.86;58.36
79285;BME280;68734;50.452;11.636;2023-05-10T12:38:37;95084.00;;;17.14;57.60
79285;BME280;68734;50.452;11.636;2023-05-10T12:41:05;95083.94;;;17.37;57.41
79285;BME280;68734;50.452;11.636;2023-05-10T12:43:31;95083.41;;;17.74;55.42
79285;BME280;68734;50.452;11.636;2023-05-10T12:45:58;95086.38;;;17.96;55.90
79285;BME280;68734;50.452;11.636;2023-05-10T12:48:23;95088.00;;;18.14;54.86
79285;BME280;68734;50.452;11.636;2023-05-10T12:50:51;95088.88;;;17.74;55.74
79285;BME280;68734;50.452;11.636;2023-05-10T12:53:16;95095.03;;;17.89;55.30
79285;BME280;68734;50.452;11.636;2023-05-10T12:55:45;95089.94;;;17.96;55.01
79285;BME280;68734;50.452;11.636;2023-05-10T12:58:10;95092.66;;;17.96;54.42
79285;BME280;68734;50.452;11.636;2023-05-10T13:00:36;95095.53;;;17.91;53.66
79285;BME280;68734;50.452;11.636;2023-05-10T13:03:06;95093.84;;;17.72;54.30
79285;BME280;68734;50.452;11.636;2023-05-10T13:05:34;95105.34;;;17.52;55.96
79285;BME280;68734;50.452;11.636;2023-05-10T13:08:00;95102.66;;;17.61;56.32
79285;BME280;68734;50.452;11.636;2023-05-10T13:10:31;95094.69;;;17.42;55.81
79285;BME280;68734;50.452;11.636;2023-05-10T13:13:00;95094.03;;;17.36;56.50
79285;BME280;68734;50.452;11.636;2023-05-10T13:15:26;95104.91;;;17.27;56.82
79285;BME280;68734;50.452;11.636;2023-05-10T13:17:53;95098.91;;;16.85;55.60
79285;BME280;68734;50.452;11.636;2023-05-10T13:20:18;95101.75;;;16.80;57.97
79285;BME280;68734;50.452;11.636;2023-05-10T13:22:44;95098.88;;;16.40;58.42
79285;BME280;68734;50.452;11.636;2023-05-10T13:25:12;95099.34;;;16.20;60.58
79285;BME280;68734;50.452;11.636;2023-05-10T13:27:39;95105.16;;;15.77;59.95
79285;BME280;68734;50.452;11.636;2023-05-10T13:30:05;95108.72;;;14.56;66.15
79285;BME280;68734;50.452;11.636;2023-05-10T13:32:30;95102.91;;;14.25;68.00
79285;BME280;68734;50.452;11.636;2023-05-10T13:34:56;95113.19;;;14.28;68.68
79285;BME280;68734;50.452;11.636;2023-05-10T13:37:24;95112.06;;;14.29;67.43
79285;BME280;68734;50.452;11.636;2023-05-10T13:39:49;95111.78;;;14.30;68.10